Time;durP1;ratioP1;P1;durP2;ratioP2;P2;SDS_P1;SDS_P2;PMS_P1;PMS_P2;Temp;Humidity;BMP_temperature;BMP_pressure;BME280_temperature;BME280_humidity;BME280_pressure;Samples;Min_cycle;Max_cycle;Signal;HPM_P1;HPM_P2
2022/09/29 00:02:24;;;;;;;28.20;15.07;;;;;;;-148.88;100.00;75212.59;5016090;28;20018;-77
2022/09/29 00:04:49;;;;;;;31.45;25.63;;;;;;;-148.88;100.00;75214.63;5016015;28;20033;-76
2022/09/29 00:07:14;;;;;;;31.55;25.67;;;;;;;-148.88;100.00;75216.66;5016044;28;20047;-76
2022/09/29 00:09:39;;;;;;;23.02;12.93;;;;;;;-148.88;100.00;75224.78;5015958;28;20113;-76
2022/09/29 00:12:05;;;;;;;32.08;25.17;;;;;;;-148.88;100.00;75220.72;5016118;28;20468;-76
2022/09/29 00:14:30;;;;;;;29.73;24.90;;;;;;;-148.88;100.00;75224.78;5016165;28;20032;-76
2022/09/29 00:16:56;;;;;;;23.95;13.05;;;;;;;-148.88;100.00;75222.75;5015812;28;20115;-76
2022/09/29 00:19:21;;;;;;;28.48;14.95;;;;;;;-148.88;100.00;75222.75;5015750;28;20136;-76
2022/09/29 00:21:46;;;;;;;24.15;13.32;;;;;;;-148.88;100.00;75224.78;5015940;28;20021;-76
2022/09/29 00:24:12;;;;;;;26.10;13.70;;;;;;;-148.88;100.00;75220.72;5014343;28;20499;-76
2022/09/29 00:26:37;;;;;;;22.92;13.25;;;;;;;-148.88;100.00;75220.72;5014356;28;20117;-77
2022/09/29 00:29:03;;;;;;;29.92;23.25;;;;;;;-148.88;100.00;75220.72;5015958;28;20026;-76
2022/09/29 00:31:31;;;;;;;28.67;23.67;;;;;;;-148.88;100.00;75220.72;5015514;28;20092;-76
2022/09/29 00:33:57;;;;;;;24.60;13.45;;;;;;;-148.88;100.00;75224.78;5014260;28;20026;-76
2022/09/29 00:36:23;;;;;;;23.13;12.80;;;;;;;-148.88;100.00;75220.72;5015116;28;20439;-76
2022/09/29 00:38:51;;;;;;;24.17;14.48;;;;;;;-148.88;100.00;75226.81;5015477;28;20116;-76
2022/09/29 00:41:26;;;;;;;24.83;14.05;;;;;;;-148.88;100.00;75230.88;5015303;28;20022;-76
2022/09/29 00:44:25;;;;;;;26.52;23.67;;;;;;;-148.88;100.00;75236.97;5015512;28;20475;-76
2022/09/29 00:47:01;;;;;;;22.88;13.25;;;;;;;-148.88;100.00;75226.81;5015048;28;20037;-76
2022/09/29 00:49:44;;;;;;;23.20;13.93;;;;;;;-148.88;100.00;75228.84;5014008;28;20488;-76
2022/09/29 00:52:18;;;;;;;22.88;13.05;;;;;;;-148.88;100.00;75220.72;5015349;28;20393;-76
2022/09/29 00:54:49;;;;;;;30.08;25.05;;;;;;;-148.88;100.00;75214.63;5013852;28;20061;-76
2022/09/29 00:57:18;;;;;;;23.83;14.50;;;;;;;-148.88;100.00;75218.69;5015076;28;20053;-76
2022/09/29 00:59:56;;;;;;;23.27;13.63;;;;;;;-148.88;100.00;75214.63;5014997;28;20480;-76
2022/09/29 01:02:22;;;;;;;26.08;14.15;;;;;;;-148.88;100.00;75210.56;5013601;28;20061;-76
2022/09/29 01:04:51;;;;;;;21.52;13.57;;;;;;;-148.88;100.00;75208.53;5014952;28;20484;-76
2022/09/29 01:07:19;;;;;;;29.30;23.75;;;;;;;-148.88;100.00;75204.47;5014908;28;20041;-76
2022/09/29 01:09:45;;;;;;;31.00;25.05;;;;;;;-148.88;100.00;75200.41;5015153;28;20025;-76
2022/09/29 01:12:10;;;;;;;23.25;14.55;;;;;;;-148.88;100.00;75202.44;5014980;28;20038;-76
2022/09/29 01:14:37;;;;;;;25.20;14.73;;;;;;;-148.88;100.00;75210.56;5014785;28;20033;-76
2022/09/29 01:17:04;;;;;;;27.00;15.50;;;;;;;-148.88;100.00;75204.47;5013560;28;20037;-76
2022/09/29 01:19:31;;;;;;;32.97;27.38;;;;;;;-148.88;100.00;75204.47;5015201;28;20063;-77
2022/09/29 01:22:09;;;;;;;27.60;15.38;;;;;;;-148.88;100.00;75202.44;5014512;28;20029;-77
2022/09/29 01:25:03;;;;;;;30.85;25.50;;;;;;;-148.88;100.00;75196.34;5014550;28;20041;-76
2022/09/29 01:27:48;;;;;;;22.80;13.40;;;;;;;-148.88;100.00;75208.53;5013251;28;20400;-76
2022/09/29 01:30:13;;;;;;;;;;;;;;;-148.88;100.00;75214.63;5015003;28;20097;-76
2022/09/29 01:32:45;;;;;;;19.75;11.52;;;;;;;-148.88;100.00;75218.69;5013019;28;20408;-76
2022/09/29 01:35:10;;;;;;;27.83;13.07;;;;;;;-148.88;100.00;75224.78;5013091;28;20018;-77
2022/09/29 01:38:09;;;;;;;28.27;24.13;;;;;;;-148.88;100.00;75226.81;5014345;28;20396;-76
2022/09/29 01:40:48;;;;;;;25.55;13.18;;;;;;;-148.88;100.00;75230.88;5014385;28;20022;-76
2022/09/29 01:43:20;;;;;;;23.52;13.70;;;;;;;-148.88;100.00;75230.88;5013015;28;20087;-76
2022/09/29 01:45:52;;;;;;;29.10;23.52;;;;;;;-148.88;100.00;75239.00;5014107;28;20061;-76
2022/09/29 01:48:24;;;;;;;26.10;13.88;;;;;;;-148.88;100.00;75245.09;5013664;28;20025;-76
2022/09/29 01:50:54;;;;;;;25.83;15.30;;;;;;;-148.88;100.00;75243.06;5014281;28;20029;-76
2022/09/29 01:53:29;;;;;;;23.10;13.80;;;;;;;-148.88;100.00;75241.03;5014225;28;20496;-76
2022/09/29 01:56:00;;;;;;;33.00;26.38;;;;;;;-148.88;100.00;75224.78;5013965;28;20034;-77
2022/09/29 01:58:36;;;;;;;31.92;26.45;;;;;;;-148.88;100.00;75220.72;5014019;28;20022;-77
2022/09/29 02:01:06;;;;;;;27.23;15.10;;;;;;;-148.88;100.00;75218.69;5014056;28;20037;-76
2022/09/29 02:03:42;;;;;;;33.15;26.70;;;;;;;-148.88;100.00;75212.59;5012452;28;20033;-76
2022/09/29 02:06:16;;;;;;;34.00;27.00;;;;;;;-148.88;100.00;75204.47;5013908;28;20048;-77
2022/09/29 02:08:49;;;;;;;32.35;27.08;;;;;;;-148.88;100.00;75208.53;5012615;28;20387;-77
2022/09/29 02:11:15;;;;;;;29.35;15.70;;;;;;;-148.88;100.00;75212.59;5014107;28;20361;-77
2022/09/29 02:13:49;;;;;;;27.60;15.45;;;;;;;-148.88;100.00;75208.53;5013792;28;20053;-76
2022/09/29 02:16:18;;;;;;;27.42;15.82;;;;;;;-148.88;100.00;75212.59;5013340;28;20372;-76
2022/09/29 02:18:52;;;;;;;31.92;27.52;;;;;;;-148.88;100.00;75202.44;5013416;28;20041;-76
2022/09/29 02:21:17;;;;;;;31.17;17.02;;;;;;;-148.88;100.00;75210.56;5013696;28;20048;-77
2022/09/29 02:23:43;;;;;;;36.75;30.30;;;;;;;-148.88;100.00;75214.63;5013525;28;20101;-77
2022/09/29 02:26:11;;;;;;;37.65;30.45;;;;;;;-148.88;100.00;75214.63;5013634;28;20392;-76
2022/09/29 02:28:36;;;;;;;28.30;16.67;;;;;;;-148.88;100.00;75214.63;5013447;28;20029;-76
2022/09/29 02:31:02;;;;;;;29.60;17.38;;;;;;;-148.88;100.00;75224.78;5012072;28;20021;-76
2022/09/29 02:33:27;;;;;;;35.53;29.27;;;;;;;-148.88;100.00;75224.78;5013343;28;20026;-76
2022/09/29 02:36:29;;;;;;;34.88;28.25;;;;;;;-148.88;100.00;75220.72;5013586;28;20480;-77
2022/09/29 02:39:07;;;;;;;28.80;16.00;;;;;;;-148.88;100.00;75220.72;5008815;28;20614;-77
2022/09/29 02:42:01;;;;;;;30.02;16.23;;;;;;;-148.88;100.00;75232.91;5011851;28;20035;-76
2022/09/29 02:44:48;;;;;;;18.03;10.00;;;;;;;-148.88;100.00;75253.22;5012376;28;20029;-76
2022/09/29 02:47:48;;;;;;;16.90;10.25;;;;;;;-148.88;100.00;75281.66;5013159;28;20026;-76
2022/09/29 02:50:25;;;;;;;24.85;18.05;;;;;;;-148.88;100.00;75289.75;5013161;28;20034;-76
2022/09/29 02:52:59;;;;;;;18.40;10.40;;;;;;;-148.88;100.00;75285.69;5013550;28;20425;-76
2022/09/29 02:55:37;;;;;;;21.30;10.82;;;;;;;-148.88;100.00;75277.59;5013160;28;20025;-76
2022/09/29 02:58:12;;;;;;;19.48;11.93;;;;;;;-148.88;100.00;75275.56;5011946;28;20468;-77
2022/09/29 03:00:38;;;;;;;32.05;26.27;;;;;;;-148.88;100.00;75261.34;5013254;28;20100;-77
2022/09/29 03:03:03;;;;;;;25.73;14.50;;;;;;;-148.88;100.00;75265.41;5013009;28;20478;-76
2022/09/29 03:05:30;;;;;;;22.60;13.35;;;;;;;-148.88;100.00;75261.34;5013521;28;20034;-76
2022/09/29 03:07:55;;;;;;;23.67;13.60;;;;;;;-148.88;100.00;75259.31;5013492;28;20526;-76
2022/09/29 03:10:21;;;;;;;29.98;22.83;;;;;;;-148.88;100.00;75265.41;5012871;28;20055;-76
2022/09/29 03:12:46;;;;;;;21.75;12.13;;;;;;;-148.88;100.00;75261.34;5012795;28;20038;-76
2022/09/29 03:15:12;;;;;;;21.67;12.10;;;;;;;-148.88;100.00;75253.22;5011608;28;20144;-76
2022/09/29 03:17:38;;;;;;;28.95;15.48;;;;;;;-148.88;100.00;75245.09;5011371;28;20503;-77
2022/09/29 03:20:05;;;;;;;23.10;13.30;;;;;;;-148.88;100.00;75245.09;5013391;28;20109;-76
2022/09/29 03:22:30;;;;;;;35.70;28.13;;;;;;;-148.88;100.00;75241.03;5013027;28;20097;-76
2022/09/29 03:24:55;;;;;;;27.08;16.27;;;;;;;-148.88;100.00;75241.03;5013163;28;20109;-76
2022/09/29 03:27:21;;;;;;;36.60;28.35;;;;;;;-148.88;100.00;75236.97;5012995;28;20025;-76
2022/09/29 03:29:46;;;;;;;26.05;14.90;;;;;;;-148.88;100.00;75232.91;5012887;28;20026;-76
2022/09/29 03:32:12;;;;;;;24.02;14.90;;;;;;;-148.88;100.00;75236.97;5012623;28;20041;-76
2022/09/29 03:34:37;;;;;;;24.33;14.07;;;;;;;-148.88;100.00;75236.97;5011510;28;20144;-76
2022/09/29 03:37:03;;;;;;;32.78;26.95;;;;;;;-148.88;100.00;75241.03;5012699;28;20053;-76
2022/09/29 03:39:29;;;;;;;33.65;27.23;;;;;;;-148.88;100.00;75249.16;5012670;28;20032;-76
2022/09/29 03:41:54;;;;;;;26.90;15.10;;;;;;;-148.88;100.00;75249.16;5012608;28;20021;-76
2022/09/29 03:44:20;;;;;;;33.35;27.23;;;;;;;-148.88;100.00;75251.19;5012681;28;20026;-77
2022/09/29 03:46:46;;;;;;;26.17;15.15;;;;;;;-148.88;100.00;75249.16;5012976;28;20033;-76
2022/09/29 03:49:13;;;;;;;32.40;27.38;;;;;;;-148.88;100.00;75253.22;5012869;28;20050;-76
2022/09/29 03:51:40;;;;;;;24.55;13.95;;;;;;;-148.88;100.00;75255.25;5011404;28;20546;-76
2022/09/29 03:54:06;;;;;;;25.48;14.65;;;;;;;-148.88;100.00;75249.16;5012548;28;20168;-75
2022/09/29 03:56:33;;;;;;;25.10;13.82;;;;;;;-148.88;100.00;75253.22;5012322;28;20074;-75
2022/09/29 03:58:58;;;;;;;27.63;16.23;;;;;;;-148.88;100.00;75259.31;5011236;28;20121;-76
2022/09/29 04:01:24;;;;;;;29.10;14.93;;;;;;;-148.88;100.00;75257.28;5012407;28;20100;-75
2022/09/29 04:03:49;;;;;;;24.52;14.18;;;;;;;-148.88;100.00;75257.28;5011248;28;20018;-75
2022/09/29 04:06:14;;;;;;;26.40;16.00;;;;;;;-148.88;100.00;75265.41;5012513;28;20119;-76
2022/09/29 04:08:40;;;;;;;28.13;15.57;;;;;;;-148.88;100.00;75269.47;5012441;28;20031;-75
2022/09/29 04:11:06;;;;;;;31.95;27.27;;;;;;;-148.88;100.00;75271.50;5013932;28;20034;-75
2022/09/29 04:13:31;;;;;;;34.25;28.08;;;;;;;-148.88;100.00;75285.69;5015792;28;20435;-77
2022/09/29 04:15:59;;;;;;;34.33;27.63;;;;;;;-148.88;100.00;75287.72;5015878;28;20030;-75
2022/09/29 04:18:24;;;;;;;34.00;28.27;;;;;;;-148.88;100.00;75289.75;5014333;28;20132;-76
2022/09/29 04:20:50;;;;;;;34.70;28.10;;;;;;;-148.88;100.00;75293.81;5015647;28;20498;-75
2022/09/29 04:23:16;;;;;;;27.48;14.88;;;;;;;-148.88;100.00;75301.94;4998113;28;20516;-75
2022/09/29 04:25:44;;;;;;;25.10;14.90;;;;;;;-148.88;100.00;75299.91;5015931;28;20077;-75
2022/09/29 04:28:09;;;;;;;25.25;15.48;;;;;;;-148.88;100.00;75306.00;5015722;28;20120;-76
2022/09/29 04:30:34;;;;;;;27.48;15.88;;;;;;;-148.88;100.00;75314.13;5015641;28;20101;-75
2022/09/29 04:33:00;;;;;;;32.45;27.73;;;;;;;-148.88;100.00;75324.28;5015416;28;20026;-75
2022/09/29 04:35:25;;;;;;;36.20;28.63;;;;;;;-148.88;100.00;75330.38;5015776;28;20026;-75
2022/09/29 04:37:55;;;;;;;24.08;14.40;;;;;;;-148.88;100.00;75334.44;5014122;28;20029;-75
2022/09/29 04:40:21;;;;;;;29.40;16.38;;;;;;;-148.88;100.00;75350.69;5014128;28;20503;-75
2022/09/29 04:42:46;;;;;;;25.20;15.73;;;;;;;-148.88;100.00;75350.69;5014103;28;20112;-74
2022/09/29 04:45:12;;;;;;;27.75;15.70;;;;;;;-148.88;100.00;75350.69;5015287;28;20099;-74
2022/09/29 04:47:37;;;;;;;27.80;15.10;;;;;;;-148.88;100.00;75350.69;5015276;28;20024;-74
2022/09/29 04:50:03;;;;;;;29.45;14.98;;;;;;;-148.88;100.00;75352.72;5013858;28;20030;-74
2022/09/29 04:52:28;;;;;;;27.13;14.95;;;;;;;-148.88;100.00;75354.75;5014953;28;20542;-74
2022/09/29 04:54:55;;;;;;;37.03;20.58;;;;;;;-148.88;100.00;75354.75;5015183;28;20121;-74
2022/09/29 04:57:20;;;;;;;32.25;17.17;;;;;;;-148.88;100.00;75354.75;5015117;28;20076;-74
2022/09/29 04:59:46;;;;;;;31.15;17.33;;;;;;;-148.88;100.00;75356.78;5015003;28;20025;-74
2022/09/29 05:02:11;;;;;;;27.30;15.32;;;;;;;-148.88;100.00;75358.81;5014909;28;20381;-74
2022/09/29 05:04:36;;;;;;;27.35;14.35;;;;;;;-148.88;100.00;75368.97;5013933;28;20033;-74
2022/09/29 05:07:02;;;;;;;32.72;26.45;;;;;;;-148.88;100.00;75375.06;5014141;28;20120;-74
2022/09/29 05:09:27;;;;;;;34.60;26.45;;;;;;;-148.88;100.00;75377.09;5014855;28;20025;-75
2022/09/29 05:11:52;;;;;;;26.77;14.32;;;;;;;-148.88;100.00;75379.13;5014952;28;20022;-74
2022/09/29 05:14:18;;;;;;;25.55;13.75;;;;;;;-148.88;100.00;75379.13;5014754;28;20404;-75
2022/09/29 05:16:43;;;;;;;25.58;13.82;;;;;;;-148.88;100.00;75375.06;5014688;28;20018;-74
2022/09/29 05:19:09;;;;;;;26.67;13.93;;;;;;;-148.88;100.00;75383.19;5014428;28;20038;-74
2022/09/29 05:21:35;;;;;;;30.70;23.48;;;;;;;-148.88;100.00;75375.06;5014034;28;20105;-74
2022/09/29 05:24:01;;;;;;;24.50;13.65;;;;;;;-148.88;100.00;75377.09;5014329;28;20101;-74
2022/09/29 05:26:26;;;;;;;25.00;13.65;;;;;;;-148.88;100.00;75375.06;5013376;28;20034;-77
2022/09/29 05:28:52;;;;;;;26.23;13.68;;;;;;;-148.88;100.00;75375.06;5014726;28;20061;-77
2022/09/29 05:31:18;;;;;;;30.83;14.38;;;;;;;-148.88;100.00;75375.06;5013371;28;20025;-77
2022/09/29 05:33:43;;;;;;;23.65;13.27;;;;;;;-148.88;100.00;75366.94;5014592;28;20499;-77
2022/09/29 05:36:10;;;;;;;23.45;12.65;;;;;;;-148.88;100.00;75366.94;5014735;28;20034;-77
2022/09/29 05:38:37;;;;;;;32.13;24.42;;;;;;;-148.88;100.00;75371.00;5014714;28;20036;-77
2022/09/29 05:41:09;;;;;;;22.38;12.60;;;;;;;-148.88;100.00;75364.91;5014426;28;20026;-77
2022/09/29 05:43:34;;;;;;;25.63;12.55;;;;;;;-148.88;100.00;75356.78;5014636;28;20075;-77
2022/09/29 05:46:01;;;;;;;27.98;13.43;;;;;;;-148.88;100.00;75362.88;5013046;28;20030;-77
2022/09/29 05:48:28;;;;;;;26.52;13.52;;;;;;;-148.88;100.00;75362.88;5014575;28;20476;-77
2022/09/29 05:50:53;;;;;;;26.35;13.93;;;;;;;-148.88;100.00;75362.88;5014278;28;20136;-77
2022/09/29 05:53:18;;;;;;;25.98;13.57;;;;;;;-148.88;100.00;75364.91;5014208;28;20109;-77
2022/09/29 05:55:44;;;;;;;24.92;14.02;;;;;;;-148.88;100.00;75362.88;5012909;28;20018;-77
2022/09/29 05:58:09;;;;;;;24.73;13.30;;;;;;;-148.88;100.00;75358.81;5014291;28;20022;-77
2022/09/29 06:00:34;;;;;;;25.67;13.68;;;;;;;-148.88;100.00;75368.97;5012815;28;20121;-77
2022/09/29 06:03:00;;;;;;;26.80;14.20;;;;;;;-148.88;100.00;75366.94;5012815;28;20040;-77
2022/09/29 06:05:27;;;;;;;20.67;12.10;;;;;;;-148.88;100.00;75371.00;5012740;28;20030;-77
2022/09/29 06:07:52;;;;;;;27.95;13.38;;;;;;;-148.88;100.00;75371.00;5013904;28;20061;-77
2022/09/29 06:10:18;;;;;;;27.45;13.80;;;;;;;-148.88;100.00;75371.00;5013825;28;20053;-77
2022/09/29 06:12:44;;;;;;;31.05;14.43;;;;;;;-148.88;100.00;75373.03;5013676;28;20045;-76
2022/09/29 06:15:10;;;;;;;28.90;22.48;;;;;;;-148.88;100.00;75389.28;5013745;28;20032;-77
2022/09/29 06:17:36;;;;;;;25.35;13.13;;;;;;;-148.88;100.00;75409.59;5013627;28;20037;-77
2022/09/29 06:20:03;;;;;;;31.23;14.52;;;;;;;-148.88;100.00;75413.66;5013736;28;20121;-77
2022/09/29 06:22:28;;;;;;;25.83;13.70;;;;;;;-148.88;100.00;75403.50;5013541;28;20404;-77
2022/09/29 06:24:54;;;;;;;26.80;13.73;;;;;;;-148.88;100.00;75405.53;5013512;28;20028;-76
2022/09/29 06:27:20;;;;;;;25.35;13.18;;;;;;;-148.88;100.00;75409.59;5012431;28;20026;-77
2022/09/29 06:29:46;;;;;;;24.58;13.05;;;;;;;-148.88;100.00;75407.56;5013423;28;20033;-76
2022/09/29 06:32:12;;;;;;;23.08;12.38;;;;;;;-148.88;100.00;75401.47;5012024;28;20037;-77
2022/09/29 06:37:33;;;;;;;22.60;12.48;;;;;;;-148.88;100.00;75399.44;5011676;28;20030;-77
2022/09/29 06:37:38;;;;;;;23.98;13.70;;;;;;;-148.88;100.00;75393.34;5013234;28;20037;-77
2022/09/29 06:40:07;;;;;;;25.67;13.23;;;;;;;-148.88;100.00;75405.53;5012856;28;20108;-77
2022/09/29 06:42:33;;;;;;;22.27;12.23;;;;;;;-148.88;100.00;75403.50;5011963;28;20164;-77
2022/09/29 06:44:58;;;;;;;21.33;12.02;;;;;;;-148.88;100.00;75399.44;5013392;28;20049;-77
2022/09/29 06:47:24;;;;;;;26.92;20.48;;;;;;;-148.88;100.00;75391.31;5013500;28;20104;-77
2022/09/29 06:49:50;;;;;;;29.27;21.98;;;;;;;-148.88;100.00;75395.38;5013294;28;20448;-77
2022/09/29 06:52:16;;;;;;;23.63;12.35;;;;;;;-148.88;100.00;75397.41;5013527;28;20101;-78
2022/09/29 06:54:41;;;;;;;28.75;22.17;;;;;;;-148.88;100.00;75397.41;5014125;28;20057;-77
2022/09/29 06:57:06;;;;;;;22.75;12.02;;;;;;;-148.88;100.00;75403.50;5012069;28;20068;-76
2022/09/29 06:59:31;;;;;;;26.15;13.18;;;;;;;-148.88;100.00;75399.44;5013079;28;20026;-77
2022/09/29 07:01:57;;;;;;;24.60;12.82;;;;;;;-148.88;100.00;75395.38;5013347;28;20387;-78
2022/09/29 07:04:24;;;;;;;23.10;12.73;;;;;;;-148.88;100.00;75391.31;5011990;28;20013;-77
2022/09/29 07:06:50;;;;;;;27.63;13.70;;;;;;;-148.88;100.00;75389.28;5011873;28;20121;-77
2022/09/29 07:09:15;;;;;;;25.52;12.73;;;;;;;-148.88;100.00;75379.13;5013200;28;20033;-77
2022/09/29 07:11:45;;;;;;;22.77;12.60;;;;;;;-148.88;100.00;75371.00;5013235;28;20026;-77
2022/09/29 07:14:15;;;;;;;24.10;12.20;;;;;;;-148.88;100.00;75362.88;5013395;28;20108;-77
2022/09/29 07:16:41;;;;;;;33.25;23.20;;;;;;;-148.88;100.00;75354.75;5013183;28;20080;-77
2022/09/29 07:19:06;;;;;;;24.60;12.88;;;;;;;-148.88;100.00;75358.81;5012961;28;20436;-77
2022/09/29 07:21:31;;;;;;;26.05;13.07;;;;;;;-148.88;100.00;75350.69;5013002;28;20084;-77
2022/09/29 07:23:57;;;;;;;24.10;12.30;;;;;;;-148.88;100.00;75348.66;5013587;28;20026;-77
2022/09/29 07:26:22;;;;;;;25.77;11.90;;;;;;;-148.88;100.00;75342.56;5013042;28;20057;-77
2022/09/29 07:28:47;;;;;;;30.23;22.45;;;;;;;-148.88;100.00;75334.44;5012984;28;20022;-77
2022/09/29 07:31:16;;;;;;;34.75;22.92;;;;;;;-148.88;100.00;75330.38;5012936;28;20025;-78
2022/09/29 07:33:43;;;;;;;25.42;11.77;;;;;;;-148.88;100.00;75324.28;5012967;28;20480;-78
2022/09/29 07:36:08;;;;;;;24.88;12.13;;;;;;;-148.88;100.00;75314.13;5012948;28;20030;-77
2022/09/29 07:38:34;;;;;;;28.80;12.73;;;;;;;-148.88;100.00;75312.09;5012890;28;20064;-77
2022/09/29 07:41:06;;;;;;;28.30;13.15;;;;;;;-148.88;100.00;75308.03;5013055;28;20030;-77
2022/09/29 07:43:32;;;;;;;25.08;12.73;;;;;;;-148.88;100.00;75306.00;5012315;28;20033;-78
2022/09/29 07:45:59;;;;;;;32.55;14.32;;;;;;;-148.88;100.00;75293.81;5014474;28;20026;-78
2022/09/29 07:48:24;;;;;;;29.63;13.70;;;;;;;-148.88;100.00;75293.81;5015380;28;20037;-77
2022/09/29 07:50:51;;;;;;;31.77;14.13;;;;;;;-148.88;100.00;75285.69;5016640;28;20032;-78
2022/09/29 07:53:16;;;;;;;35.65;23.95;;;;;;;-148.88;100.00;75273.53;5016600;28;20439;-77
2022/09/29 07:55:42;;;;;;;39.90;25.88;;;;;;;-148.88;100.00;75279.59;5016577;28;20484;-77
2022/09/29 07:58:07;;;;;;;35.13;15.00;;;;;;;-148.88;100.00;75269.47;5016724;28;20443;-78
2022/09/29 08:00:33;;;;;;;29.70;13.98;;;;;;;-148.88;100.00;75273.53;5016717;28;20370;-77
2022/09/29 08:03:02;;;;;;;35.85;15.05;;;;;;;-148.88;100.00;75257.28;5017112;28;20030;-77
2022/09/29 08:05:32;;;;;;;30.80;15.00;;;;;;;-148.88;100.00;75257.28;5015179;28;20030;-78
2022/09/29 08:07:57;;;;;;;36.25;16.13;;;;;;;-148.88;100.00;75247.13;5016354;28;20042;-77
2022/09/29 08:10:23;;;;;;;44.47;27.25;;;;;;;-148.88;100.00;75236.97;5016296;28;20069;-77
2022/09/29 08:12:48;;;;;;;37.83;15.90;;;;;;;-148.88;100.00;75220.72;5016233;28;20026;-77
2022/09/29 08:15:13;;;;;;;40.33;26.35;;;;;;;-148.88;100.00;75214.63;5016308;28;20029;-77
2022/09/29 08:17:39;;;;;;;45.80;28.10;;;;;;;-148.88;100.00;75212.59;5029078;22;20563;-81
2022/09/29 08:20:04;;;;;;;43.55;27.23;;;;;;;-148.88;100.00;75206.50;5038163;28;20112;-82
2022/09/29 08:22:30;;;;;;;46.13;27.83;;;;;;;-148.88;100.00;75188.22;5040551;28;20029;-83
2022/09/29 08:24:55;;;;;;;38.15;17.20;;;;;;;-148.88;100.00;75184.16;5041675;28;20022;-82
2022/09/29 08:27:20;;;;;;;40.78;17.13;;;;;;;-148.88;100.00;75176.03;5042565;28;20029;-82
2022/09/29 08:29:46;;;;;;;48.30;30.30;;;;;;;-148.88;100.00;75180.09;5041932;28;20029;-81
2022/09/29 08:32:11;;;;;;;46.42;18.23;;;;;;;-148.88;100.00;75151.66;5042435;28;20403;-83
2022/09/29 08:34:39;;;;;;;49.50;18.20;;;;;;;-148.88;100.00;75163.84;5044194;28;20029;-82
2022/09/29 08:37:04;;;;;;;42.42;16.95;;;;;;;-148.88;100.00;75159.78;5043528;28;20037;-83
2022/09/29 08:39:30;;;;;;;46.03;28.67;;;;;;;-148.88;100.00;75151.66;5043449;28;20434;-82
2022/09/29 08:42:14;;;;;;;42.50;27.35;;;;;;;-148.88;100.00;75151.66;5045304;28;20051;-83
2022/09/29 08:44:57;;;;;;;37.95;17.17;;;;;;;-148.88;100.00;75135.41;5044322;28;20025;-83
2022/09/29 08:47:34;;;;;;;46.25;27.75;;;;;;;-148.88;100.00;75109.00;5045956;28;20048;-83
2022/09/29 08:50:39;;;;;;;49.28;30.13;;;;;;;-148.88;100.00;75080.59;5045107;28;20033;-83
2022/09/29 08:53:15;;;;;;;38.00;16.70;;;;;;;-148.88;100.00;75078.56;5038211;28;20427;-82
2022/09/29 08:56:06;;;;;;;41.05;25.98;;;;;;;-148.88;100.00;75078.56;5042184;28;20025;-82
2022/09/29 08:58:32;;;;;;;41.50;27.08;;;;;;;-148.88;100.00;75058.25;5045029;28;20057;-82
2022/09/29 09:01:23;;;;;;;42.70;27.60;;;;;;;-148.88;100.00;75054.19;5045101;28;20025;-83
2022/09/29 09:04:04;;;;;;;38.38;25.92;;;;;;;-148.88;100.00;75029.81;5046172;28;20092;-83
2022/09/29 09:07:08;;;;;;;38.55;25.75;;;;;;;-148.88;100.00;75017.63;5045728;28;20037;-83
2022/09/29 09:10:08;;;;;;;38.13;24.98;;;;;;;-148.88;99.77;75013.56;5045261;28;20025;-83
2022/09/29 09:13:00;;;;;;;33.65;15.73;;;;;;;-148.88;100.00;74964.81;5046270;28;20033;-83
2022/09/29 09:15:43;;;;;;;36.03;23.80;;;;;;;-148.88;97.39;74974.97;5045632;28;20099;-83
2022/09/29 09:18:28;;;;;;;35.60;24.25;;;;;;;-148.88;99.12;74924.22;5045826;28;20026;-82
2022/09/29 09:21:16;;;;;;;35.58;22.77;;;;;;;-148.88;98.05;74903.91;5046655;28;20029;-83
2022/09/29 09:23:55;;;;;;;33.95;22.48;;;;;;;-148.88;95.09;74899.84;5046543;28;20018;-82
2022/09/29 09:26:49;;;;;;;30.83;21.95;;;;;;;-148.88;92.91;74889.69;5044107;28;20563;-83
2022/09/29 09:29:38;;;;;;;30.92;20.52;;;;;;;-148.88;91.15;74885.63;5015572;28;20044;-82
2022/09/29 09:32:09;;;;;;;29.90;21.60;;;;;;;-148.88;91.68;74851.09;5039745;28;20025;-83
2022/09/29 09:34:43;;;;;;;32.72;21.65;;;;;;;-148.88;91.41;74822.66;5040858;28;20020;-82
2022/09/29 09:37:24;;;;;;;30.38;21.65;;;;;;;-148.88;90.85;74798.31;5039713;28;20036;-83
2022/09/29 09:40:04;;;;;;;28.08;20.05;;;;;;;-148.88;89.54;74816.56;5040849;28;20025;-83
2022/09/29 09:42:39;;;;;;;28.27;19.45;;;;;;;-148.88;90.07;74818.59;5042945;28;20033;-83
2022/09/29 09:45:29;;;;;;;30.80;22.52;;;;;;;-148.88;90.20;74818.59;5043771;28;20022;-83
2022/09/29 09:48:01;;;;;;;31.45;22.52;;;;;;;-148.88;90.78;74786.13;5043384;28;20025;-83
2022/09/29 09:50:27;;;;;;;26.20;19.17;;;;;;;-148.88;88.46;74753.63;5042332;28;20017;-83
2022/09/29 09:52:56;;;;;;;25.90;19.00;;;;;;;-148.88;86.77;74751.59;5041849;28;20271;-83
2022/09/29 09:55:24;;;;;;;24.70;19.00;;;;;;;-148.88;87.55;74814.53;5044332;28;20112;-81
2022/09/29 09:58:17;;;;;;;22.98;16.30;;;;;;;-148.88;88.00;74832.81;5044487;28;20033;-83
2022/09/29 10:00:54;;;;;;;20.17;16.20;;;;;;;-148.88;88.01;74842.97;5042153;28;20029;-82
2022/09/29 10:03:19;;;;;;;16.63;13.50;;;;;;;-148.88;86.44;74875.47;5036725;28;20329;-82
2022/09/29 10:05:47;;;;;;;21.92;13.57;;;;;;;-148.88;87.65;74889.69;5038042;28;20087;-82
2022/09/29 10:08:22;;;;;;;17.48;12.88;;;;;;;-148.88;86.90;74912.03;5038366;28;20026;-81
2022/09/29 10:10:47;;;;;;;16.52;10.10;;;;;;;-148.88;85.33;74855.16;5038657;28;20112;-83
2022/09/29 10:13:14;;;;;;;15.20;11.18;;;;;;;-148.88;82.59;74798.31;5039868;28;20072;-83
2022/09/29 10:16:12;;;;;;;12.80;9.90;;;;;;;-148.88;83.65;74769.88;5042051;28;20083;-81
2022/09/29 10:18:40;;;;;;;12.48;9.35;;;;;;;-148.88;83.72;74706.91;5042500;28;20033;-83
2022/09/29 10:21:22;;;;;;;15.55;10.00;;;;;;;-148.88;79.77;74680.53;5042966;28;20025;-82
2022/09/29 10:23:55;;;;;;;11.93;8.63;;;;;;;-148.88;79.45;74639.91;5042940;28;20025;-84
2022/09/29 10:26:24;;;;;;;;;;;;;;;-148.88;76.49;74631.78;5043703;28;20025;-84
2022/09/29 10:28:51;;;;;;;12.73;7.90;;;;;;;-148.88;74.94;74660.22;5041742;28;20427;-85
2022/09/29 10:31:26;;;;;;;8.90;7.18;;;;;;;-148.88;73.05;74670.38;5038619;28;20100;-83
2022/09/29 10:33:58;;;;;;;10.05;6.70;;;;;;;-148.88;74.70;74688.66;5034180;28;20025;-84
2022/09/29 10:36:30;;;;;;;12.48;6.90;;;;;;;-148.88;75.78;74692.72;5034330;28;20029;-84
2022/09/29 10:38:57;;;;;;;6.97;4.78;;;;;;;-148.88;71.46;74666.31;5033937;28;20567;-83
2022/09/29 10:41:24;;;;;;;7.75;5.10;;;;;;;-148.88;73.27;74603.34;5032584;28;20064;-83
2022/09/29 10:43:51;;;;;;;10.40;6.57;;;;;;;-148.88;72.30;74591.19;5034068;28;20043;-83
2022/09/29 10:46:54;;;;;;;6.18;4.40;;;;;;;-148.88;70.66;74613.50;5034192;28;20059;-83
2022/09/29 10:49:26;;;;;;;4.75;3.70;;;;;;;-148.88;69.89;74678.50;4954698;29;20026;-82
2022/09/29 10:52:04;;;;;;;6.10;5.20;;;;;;;-148.88;68.29;74607.41;5023337;28;20033;-82
2022/09/29 10:54:34;;;;;;;7.50;5.55;;;;;;;-148.88;69.40;74579.00;5040588;28;20021;-83
2022/09/29 10:57:11;;;;;;;7.90;6.47;;;;;;;-148.88;69.57;74591.19;5036837;28;20112;-83
2022/09/29 10:59:49;;;;;;;8.75;6.68;;;;;;;-148.88;69.49;74570.88;5035117;28;20017;-83
2022/09/29 11:02:26;;;;;;;8.43;6.53;;;;;;;-148.88;69.68;74558.69;5035351;28;20029;-83
2022/09/29 11:04:55;;;;;;;8.70;6.53;;;;;;;-148.88;68.01;74579.00;5033504;28;20021;-83
2022/09/29 11:07:20;;;;;;;5.57;4.22;;;;;;;-148.88;66.63;74601.31;5036047;28;20166;-83
2022/09/29 11:09:45;;;;;;;4.47;3.03;;;;;;;-148.88;66.38;74611.47;5033684;28;20025;-82
2022/09/29 11:12:33;;;;;;;7.47;3.08;;;;;;;-148.88;65.46;74646.00;5033939;28;20024;-83